createdAt,value
2022-10-30T00:01:57.680Z,15.78
2022-10-30T00:04:26.075Z,16.05
2022-10-30T00:06:54.438Z,16.13
2022-10-30T00:09:22.760Z,16.17
2022-10-30T00:11:51.097Z,16.15
2022-10-30T00:14:19.555Z,16.23
2022-10-30T00:16:47.866Z,15.97
2022-10-30T00:19:17.747Z,16.34
2022-10-30T00:21:46.102Z,16.37
2022-10-30T00:24:14.712Z,16.43
2022-10-30T00:26:43.260Z,16.42
2022-10-30T00:29:11.650Z,16.42
2022-10-30T00:31:39.983Z,16.44
2022-10-30T00:34:08.415Z,16.51
2022-10-30T00:36:38.279Z,16.53
2022-10-30T00:39:06.606Z,16.53
2022-10-30T00:41:35.281Z,16.62
2022-10-30T00:44:03.611Z,16.74
2022-10-30T00:46:36.281Z,16.76
2022-10-30T00:49:11.216Z,16.79
2022-10-30T00:51:48.336Z,16.88
2022-10-30T00:54:19.448Z,16.88
2022-10-30T00:56:50.507Z,16.96
2022-10-30T00:59:24.019Z,16.89
2022-10-30T01:01:54.168Z,16.66
2022-10-30T01:04:29.008Z,16.90
2022-10-30T01:07:03.936Z,17.04
2022-10-30T01:09:32.529Z,16.98
2022-10-30T01:12:01.173Z,17.11
2022-10-30T01:14:29.606Z,17.21
2022-10-30T01:17:24.558Z,17.06
2022-10-30T01:20:07.018Z,17.00
2022-10-30T01:22:51.833Z,17.12
2022-10-30T01:25:33.802Z,17.16
2022-10-30T01:28:08.589Z,17.21
2022-10-30T01:30:49.845Z,17.25
2022-10-30T01:33:30.267Z,17.45
2022-10-30T01:36:06.176Z,16.97
2022-10-30T01:38:40.437Z,17.29
2022-10-30T01:41:08.793Z,17.26
2022-10-30T01:43:39.142Z,16.78
2022-10-30T01:46:25.142Z,16.40
2022-10-30T01:49:17.668Z,17.18
2022-10-30T01:51:56.566Z,17.29
2022-10-30T01:54:35.631Z,17.35
2022-10-30T01:57:11.392Z,17.49
2022-10-30T01:59:44.018Z,17.40
2022-10-30T02:02:13.372Z,17.63
2022-10-30T02:04:43.037Z,17.51
2022-10-30T02:07:12.692Z,17.71
2022-10-30T02:09:42.654Z,17.72
2022-10-30T02:12:11.556Z,17.63
2022-10-30T02:14:44.511Z,17.74
2022-10-30T02:17:13.936Z,17.60
2022-10-30T02:19:42.977Z,17.72
2022-10-30T02:22:13.875Z,17.70
2022-10-30T02:24:42.367Z,17.74
2022-10-30T02:27:10.878Z,17.87
2022-10-30T02:29:39.166Z,17.72
2022-10-30T02:32:07.678Z,17.92
2022-10-30T02:34:36.986Z,17.94
2022-10-30T02:37:05.374Z,17.93
2022-10-30T02:39:35.386Z,17.99
2022-10-30T02:42:03.736Z,17.96
2022-10-30T02:44:32.234Z,18.06
2022-10-30T02:47:01.239Z,18.15
2022-10-30T02:49:29.590Z,18.15
2022-10-30T02:51:57.981Z,18.22
2022-10-30T02:54:26.650Z,18.16
2022-10-30T02:56:56.851Z,17.48
2022-10-30T02:59:25.254Z,18.29
2022-10-30T03:01:53.753Z,18.15
2022-10-30T03:04:22.159Z,18.39
2022-10-30T03:06:50.582Z,18.21
2022-10-30T03:09:19.059Z,18.19
2022-10-30T03:11:47.725Z,17.95
2022-10-30T03:14:17.685Z,18.28
2022-10-30T03:16:46.074Z,18.24
2022-10-30T03:19:14.401Z,18.32
2022-10-30T03:21:42.921Z,18.42
2022-10-30T03:24:11.389Z,18.44
2022-10-30T03:26:39.928Z,18.49
2022-10-30T03:29:09.096Z,18.53
2022-10-30T03:31:39.170Z,18.42
2022-10-30T03:34:07.694Z,18.48
2022-10-30T03:36:36.154Z,18.34
2022-10-30T03:39:04.681Z,18.62
2022-10-30T03:41:33.074Z,18.77
2022-10-30T03:44:01.466Z,18.66
2022-10-30T03:46:31.673Z,18.52
2022-10-30T03:49:01.591Z,18.55
2022-10-30T03:51:30.037Z,18.55
2022-10-30T03:53:58.664Z,18.61
2022-10-30T03:56:27.338Z,18.53
2022-10-30T03:58:55.788Z,18.68
2022-10-30T04:01:24.320Z,18.66
2022-10-30T04:03:52.820Z,18.64
2022-10-30T04:06:22.692Z,18.56
2022-10-30T04:08:51.471Z,18.66
2022-10-30T04:11:19.874Z,18.67
2022-10-30T04:13:48.415Z,18.54
2022-10-30T04:16:16.924Z,18.53
2022-10-30T04:18:45.301Z,18.60
2022-10-30T04:21:13.650Z,18.57
2022-10-30T04:23:43.392Z,18.68
2022-10-30T04:26:11.790Z,18.62
2022-10-30T04:28:40.082Z,18.51
2022-10-30T04:31:08.820Z,18.59
2022-10-30T04:33:37.197Z,18.39
2022-10-30T04:36:06.004Z,18.70
2022-10-30T04:38:34.324Z,18.59
2022-10-30T04:41:04.154Z,18.57
2022-10-30T04:43:32.449Z,18.52
2022-10-30T04:46:00.831Z,18.39
2022-10-30T04:48:29.201Z,18.48
2022-10-30T04:51:00.191Z,18.53
2022-10-30T04:53:28.592Z,18.47
2022-10-30T04:55:57.541Z,18.38
2022-10-30T04:58:27.450Z,18.16
2022-10-30T05:01:00.414Z,18.11
2022-10-30T05:03:31.445Z,18.13
2022-10-30T05:06:03.150Z,18.10
2022-10-30T05:08:32.225Z,17.97
2022-10-30T05:11:01.618Z,17.94
2022-10-30T05:13:31.445Z,18.01
2022-10-30T05:15:59.833Z,18.05
2022-10-30T05:18:28.279Z,18.00
2022-10-30T05:20:56.605Z,18.04
2022-10-30T05:23:25.045Z,17.97
2022-10-30T05:25:53.406Z,18.03
2022-10-30T05:28:21.891Z,18.08
2022-10-30T05:30:54.295Z,17.87
2022-10-30T05:33:23.669Z,17.88
2022-10-30T05:35:52.058Z,17.78
2022-10-30T05:38:20.359Z,17.70
2022-10-30T05:40:48.775Z,17.54
2022-10-30T05:43:17.252Z,17.62
2022-10-30T05:45:45.513Z,17.34
2022-10-30T05:48:15.283Z,17.38
2022-10-30T05:50:43.620Z,17.27
2022-10-30T05:53:12.273Z,17.17
2022-10-30T05:55:40.638Z,17.33
2022-10-30T05:58:09.310Z,17.32
2022-10-30T06:00:39.365Z,17.15
2022-10-30T06:03:09.225Z,16.90
2022-10-30T06:05:39.481Z,17.21
2022-10-30T06:08:08.786Z,16.76
2022-10-30T06:10:37.965Z,17.04
2022-10-30T06:13:08.874Z,17.15
2022-10-30T06:15:37.651Z,17.02
2022-10-30T06:18:06.422Z,17.05
2022-10-30T06:20:34.848Z,17.10
2022-10-30T06:23:06.246Z,16.97
2022-10-30T06:25:41.076Z,17.01
2022-10-30T06:28:11.289Z,17.10
2022-10-30T06:30:39.705Z,16.97
2022-10-30T06:33:08.790Z,16.96
2022-10-30T06:35:37.538Z,17.04
2022-10-30T06:38:09.083Z,17.02
2022-10-30T06:40:37.429Z,17.00
2022-10-30T06:43:05.865Z,16.88
2022-10-30T06:45:34.589Z,17.04
2022-10-30T06:48:03.138Z,17.09
2022-10-30T06:50:31.786Z,17.15
2022-10-30T06:53:00.199Z,17.15
2022-10-30T06:55:29.985Z,17.03
2022-10-30T06:57:59.420Z,17.07
2022-10-30T07:00:28.324Z,17.07
2022-10-30T07:03:01.679Z,17.12
2022-10-30T07:05:30.738Z,17.27
2022-10-30T07:07:59.966Z,17.37
2022-10-30T07:10:29.853Z,17.43
2022-10-30T07:12:59.050Z,17.30
2022-10-30T07:15:29.901Z,17.11
2022-10-30T07:18:00.131Z,17.29
2022-10-30T07:20:30.995Z,17.43
2022-10-30T07:22:59.445Z,17.17
2022-10-30T07:25:29.948Z,17.35
2022-10-30T07:27:59.203Z,17.34
2022-10-30T07:30:28.953Z,17.35
2022-10-30T07:33:02.449Z,17.43
2022-10-30T07:35:32.847Z,17.46
2022-10-30T07:38:05.409Z,17.49
2022-10-30T07:40:35.823Z,17.57
2022-10-30T07:43:05.811Z,17.67
2022-10-30T07:45:34.655Z,17.46
2022-10-30T07:48:03.315Z,17.76
2022-10-30T07:50:31.930Z,17.86
2022-10-30T07:53:00.301Z,17.88
2022-10-30T07:55:28.578Z,17.93
2022-10-30T07:57:59.508Z,17.81
2022-10-30T08:00:28.261Z,18.09
2022-10-30T08:02:58.760Z,18.10
2022-10-30T08:05:29.102Z,18.21
2022-10-30T08:07:58.999Z,18.21
2022-10-30T08:10:28.221Z,18.41
2022-10-30T08:12:58.178Z,18.42
2022-10-30T08:15:26.830Z,18.43
2022-10-30T08:17:55.627Z,18.40
2022-10-30T08:20:26.005Z,18.41
2022-10-30T08:22:55.861Z,18.40
2022-10-30T08:25:27.477Z,18.48
2022-10-30T08:27:59.267Z,18.71
2022-10-30T08:30:29.290Z,18.59
2022-10-30T08:33:00.126Z,18.65
2022-10-30T08:35:29.426Z,18.60
2022-10-30T08:37:58.925Z,18.70
2022-10-30T08:40:28.629Z,18.79
2022-10-30T08:43:00.041Z,19.01
2022-10-30T08:45:31.247Z,19.00
2022-10-30T08:48:01.490Z,18.85
2022-10-30T08:50:30.534Z,18.91
2022-10-30T08:53:02.754Z,18.93
2022-10-30T08:55:31.915Z,18.92
2022-10-30T08:58:02.172Z,18.85
2022-10-30T09:00:31.195Z,18.80
2022-10-30T09:02:59.791Z,18.76
2022-10-30T09:05:28.378Z,18.78
2022-10-30T09:08:01.612Z,18.78
2022-10-30T09:10:30.908Z,18.84
2022-10-30T09:13:00.172Z,18.74
2022-10-30T09:15:30.281Z,18.77
2022-10-30T09:18:00.070Z,18.73
2022-10-30T09:20:29.966Z,18.74
2022-10-30T09:22:59.157Z,18.83
2022-10-30T09:25:28.079Z,18.83
2022-10-30T09:27:56.466Z,18.81
2022-10-30T09:30:25.486Z,18.72
2022-10-30T09:32:58.316Z,18.76
2022-10-30T09:35:27.786Z,18.84
2022-10-30T09:37:57.075Z,18.76
2022-10-30T09:40:42.548Z,18.85
2022-10-30T09:43:24.784Z,18.83
2022-10-30T09:46:13.081Z,18.88
2022-10-30T09:49:11.298Z,18.85
2022-10-30T09:52:02.549Z,18.93
2022-10-30T09:54:42.084Z,19.15
2022-10-30T09:57:20.504Z,19.09
2022-10-30T10:00:02.185Z,18.96
2022-10-30T10:02:36.723Z,19.10
2022-10-30T10:05:17.136Z,19.17
2022-10-30T10:07:50.439Z,19.21
2022-10-30T10:10:24.866Z,19.22
2022-10-30T10:13:01.087Z,19.28
2022-10-30T10:15:39.242Z,19.33
2022-10-30T10:18:17.844Z,19.44
2022-10-30T10:20:52.685Z,19.60
2022-10-30T10:23:31.906Z,19.42
2022-10-30T10:26:05.909Z,19.59
2022-10-30T10:28:51.008Z,19.58
2022-10-30T10:31:33.297Z,19.80
2022-10-30T10:34:16.135Z,19.93
2022-10-30T10:36:55.653Z,19.98
2022-10-30T10:39:36.321Z,19.99
2022-10-30T10:42:17.571Z,20.14
2022-10-30T10:44:57.102Z,20.09
2022-10-30T10:48:09.778Z,20.08
2022-10-30T10:50:41.953Z,20.11
2022-10-30T10:53:21.337Z,20.10
2022-10-30T10:55:53.151Z,20.15
2022-10-30T10:58:31.853Z,20.29
2022-10-30T11:01:00.812Z,20.33
2022-10-30T11:03:38.243Z,20.51
2022-10-30T11:06:19.765Z,20.44
2022-10-30T11:08:50.322Z,20.41
2022-10-30T11:11:18.758Z,20.50
2022-10-30T11:13:47.249Z,20.55
2022-10-30T11:16:26.882Z,20.64
2022-10-30T11:18:59.347Z,20.69
2022-10-30T11:21:30.869Z,20.65
2022-10-30T11:24:02.078Z,20.80
2022-10-30T11:26:34.936Z,20.73
2022-10-30T11:29:13.093Z,20.87
2022-10-30T11:31:43.264Z,20.87
2022-10-30T11:34:21.790Z,20.96
2022-10-30T11:36:53.131Z,20.94
2022-10-30T11:39:25.657Z,20.97
2022-10-30T11:42:00.258Z,20.98
2022-10-30T11:44:33.224Z,21.03
2022-10-30T11:47:02.505Z,21.05
2022-10-30T11:49:44.898Z,21.12
2022-10-30T11:52:14.920Z,21.10
2022-10-30T11:54:48.481Z,21.06
2022-10-30T11:57:20.495Z,21.15
2022-10-30T11:59:51.017Z,21.15
2022-10-30T12:02:27.413Z,21.24
2022-10-30T12:04:57.025Z,21.15
2022-10-30T12:07:31.468Z,21.28
2022-10-30T12:10:02.611Z,21.26
2022-10-30T12:12:35.373Z,21.34
2022-10-30T12:15:12.794Z,21.33
2022-10-30T12:17:42.446Z,21.30
2022-10-30T12:20:16.362Z,21.44
2022-10-30T12:22:44.967Z,21.35
2022-10-30T12:25:24.965Z,21.39
2022-10-30T12:28:01.145Z,21.45
2022-10-30T12:30:33.045Z,21.44
2022-10-30T12:33:06.447Z,21.30
2022-10-30T12:35:46.676Z,21.43
2022-10-30T12:38:24.112Z,21.45
2022-10-30T12:41:03.732Z,21.46
2022-10-30T12:43:36.434Z,21.55
2022-10-30T12:46:23.479Z,21.52
2022-10-30T12:48:55.889Z,21.52
2022-10-30T12:51:33.786Z,21.50
2022-10-30T12:54:09.858Z,21.43
2022-10-30T12:56:43.213Z,21.37
2022-10-30T12:59:32.937Z,21.37
2022-10-30T13:02:13.557Z,21.18
2022-10-30T13:04:46.518Z,21.34
2022-10-30T13:07:21.617Z,21.28
2022-10-30T13:10:08.389Z,21.31
2022-10-30T13:12:40.987Z,21.23
2022-10-30T13:15:19.138Z,21.20
2022-10-30T13:17:47.587Z,21.16
2022-10-30T13:20:17.260Z,20.88
2022-10-30T13:22:50.783Z,21.03
2022-10-30T13:25:22.596Z,21.05
2022-10-30T13:27:57.354Z,21.05
2022-10-30T13:30:31.430Z,21.06
2022-10-30T13:33:11.621Z,21.05
2022-10-30T13:35:48.066Z,21.00
2022-10-30T13:38:31.851Z,20.96
2022-10-30T13:41:02.136Z,20.78
2022-10-30T13:43:42.979Z,20.82
2022-10-30T13:46:28.204Z,20.81
2022-10-30T13:49:21.581Z,20.80
2022-10-30T13:51:55.545Z,20.73
2022-10-30T13:54:28.708Z,20.76
2022-10-30T13:56:59.693Z,20.71
2022-10-30T13:59:45.725Z,20.65
2022-10-30T14:02:26.822Z,20.61
2022-10-30T14:05:03.805Z,20.32
2022-10-30T14:07:39.809Z,20.44
2022-10-30T14:10:15.100Z,20.47
2022-10-30T14:12:51.156Z,20.10
2022-10-30T14:15:33.185Z,20.37
2022-10-30T14:18:37.741Z,20.31
2022-10-30T14:21:39.349Z,20.24
2022-10-30T14:24:14.869Z,20.18
2022-10-30T14:26:52.789Z,20.18
2022-10-30T14:29:52.117Z,20.13
2022-10-30T14:32:41.734Z,20.13
2022-10-30T14:35:43.470Z,20.08
2022-10-30T14:38:27.070Z,20.08
2022-10-30T14:41:20.689Z,20.00
2022-10-30T14:44:00.908Z,19.92
2022-10-30T14:46:38.053Z,19.92
2022-10-30T14:49:35.418Z,19.75
2022-10-30T14:52:21.873Z,19.89
2022-10-30T14:55:03.813Z,19.81
2022-10-30T14:57:52.756Z,19.77
2022-10-30T15:00:40.678Z,19.71
2022-10-30T15:03:38.890Z,19.69
2022-10-30T15:06:22.285Z,19.62
2022-10-30T15:09:05.954Z,19.55
2022-10-30T15:11:46.967Z,19.49
2022-10-30T15:14:48.452Z,19.47
2022-10-30T15:17:28.373Z,19.40
2022-10-30T15:19:57.203Z,19.34
2022-10-30T15:22:29.109Z,19.35
2022-10-30T15:24:58.164Z,19.30
2022-10-30T15:27:27.896Z,18.82
2022-10-30T15:29:59.782Z,19.19
2022-10-30T15:32:29.019Z,18.76
2022-10-30T15:35:00.971Z,19.09
2022-10-30T15:37:31.036Z,18.83
2022-10-30T15:40:12.838Z,18.70
2022-10-30T15:42:41.662Z,18.93
2022-10-30T15:45:18.390Z,18.91
2022-10-30T15:47:49.336Z,18.86
2022-10-30T15:50:20.104Z,18.83
2022-10-30T15:52:54.113Z,18.79
2022-10-30T15:55:29.061Z,18.77
2022-10-30T15:58:04.754Z,18.58
2022-10-30T16:00:36.304Z,18.73
2022-10-30T16:03:07.126Z,18.68
2022-10-30T16:05:37.031Z,18.66
2022-10-30T16:08:14.865Z,18.65
2022-10-30T16:10:45.803Z,18.33
2022-10-30T16:13:19.312Z,18.57
2022-10-30T16:15:49.970Z,18.53
2022-10-30T16:18:22.554Z,18.49
2022-10-30T16:20:53.670Z,18.45
2022-10-30T16:23:24.498Z,18.43
2022-10-30T16:25:57.196Z,18.39
2022-10-30T16:28:31.799Z,18.28
2022-10-30T16:31:02.951Z,18.20
2022-10-30T16:33:33.566Z,18.29
2022-10-30T16:36:03.626Z,18.29
2022-10-30T16:38:37.981Z,18.18
2022-10-30T16:41:07.517Z,18.21
2022-10-30T16:43:36.788Z,18.00
2022-10-30T16:46:36.301Z,18.14
2022-10-30T16:49:10.629Z,18.13
2022-10-30T16:51:40.620Z,18.10
2022-10-30T16:54:20.791Z,18.11
2022-10-30T16:56:49.901Z,18.08
2022-10-30T16:59:26.266Z,17.98
2022-10-30T17:01:58.230Z,18.08
2022-10-30T17:04:27.201Z,18.06
2022-10-30T17:07:07.287Z,18.07
2022-10-30T17:09:39.562Z,18.05
2022-10-30T17:12:17.139Z,18.04
2022-10-30T17:14:49.624Z,18.02
2022-10-30T17:17:30.181Z,18.06
2022-10-30T17:20:03.480Z,17.78
2022-10-30T17:22:32.555Z,17.98
2022-10-30T17:25:02.334Z,18.00
2022-10-30T17:27:47.358Z,17.84
2022-10-30T17:30:39.786Z,17.96
2022-10-30T17:33:38.329Z,17.92
2022-10-30T17:36:07.843Z,17.90
2022-10-30T17:38:36.475Z,17.91
2022-10-30T17:41:07.083Z,17.90
2022-10-30T17:43:48.626Z,17.93
2022-10-30T17:46:20.346Z,17.92
2022-10-30T17:48:49.639Z,17.51
2022-10-30T17:51:19.177Z,17.91
2022-10-30T17:53:49.348Z,17.89
2022-10-30T17:56:22.970Z,17.90
2022-10-30T17:58:50.977Z,17.83
2022-10-30T18:01:22.375Z,17.97
2022-10-30T18:03:51.328Z,18.00
2022-10-30T18:06:22.258Z,17.75
2022-10-30T18:08:51.235Z,17.73
2022-10-30T18:11:23.066Z,18.20
2022-10-30T18:13:53.250Z,18.16
2022-10-30T18:16:22.177Z,18.16
2022-10-30T18:18:50.962Z,18.03
2022-10-30T18:21:20.641Z,17.95
2022-10-30T18:23:53.403Z,18.12
2022-10-30T18:26:25.228Z,18.22
2022-10-30T18:28:53.874Z,18.08
2022-10-30T18:31:24.436Z,18.05
2022-10-30T18:33:53.267Z,18.03
2022-10-30T18:36:23.721Z,17.95
2022-10-30T18:38:53.169Z,17.90
2022-10-30T18:41:26.395Z,17.46
2022-10-30T18:43:54.738Z,17.83
2022-10-30T18:46:23.205Z,17.88
2022-10-30T18:48:51.900Z,17.86
2022-10-30T18:51:23.483Z,17.89
2022-10-30T18:53:57.277Z,17.79
2022-10-30T18:56:28.874Z,17.88
2022-10-30T18:59:01.936Z,18.02
2022-10-30T19:01:31.294Z,17.79
2022-10-30T19:04:02.485Z,17.77
2022-10-30T19:06:31.373Z,17.75
2022-10-30T19:08:59.754Z,17.82
2022-10-30T19:11:31.805Z,17.94
2022-10-30T19:14:00.647Z,17.81
2022-10-30T19:16:29.847Z,17.87
2022-10-30T19:18:58.254Z,17.75
2022-10-30T19:21:28.186Z,17.82
2022-10-30T19:23:57.060Z,17.75
2022-10-30T19:26:25.624Z,17.74
2022-10-30T19:28:55.737Z,17.74
2022-10-30T19:31:24.370Z,17.82
2022-10-30T19:33:57.405Z,17.67
2022-10-30T19:36:32.077Z,17.43
2022-10-30T19:39:05.755Z,17.75
2022-10-30T19:41:37.479Z,17.52
2022-10-30T19:44:07.757Z,17.68
2022-10-30T19:46:36.605Z,17.78
2022-10-30T19:49:18.423Z,17.75
2022-10-30T19:51:47.204Z,17.19
2022-10-30T19:54:16.501Z,17.47
2022-10-30T19:56:44.982Z,17.56
2022-10-30T19:59:17.487Z,17.57
2022-10-30T20:01:47.204Z,17.57
2022-10-30T20:04:17.359Z,17.69
2022-10-30T20:06:47.217Z,17.66
2022-10-30T20:09:16.743Z,17.67
2022-10-30T20:11:46.354Z,17.54
2022-10-30T20:14:17.831Z,17.83
2022-10-30T20:16:47.582Z,17.75
2022-10-30T20:19:30.345Z,17.63
2022-10-30T20:22:00.403Z,17.34
2022-10-30T20:24:30.064Z,17.65
2022-10-30T20:27:00.568Z,17.70
2022-10-30T20:29:32.196Z,17.82
2022-10-30T20:32:01.905Z,17.68
2022-10-30T20:34:32.016Z,17.70
2022-10-30T20:37:02.018Z,17.76
2022-10-30T20:39:31.708Z,17.79
2022-10-30T20:42:01.431Z,17.71
2022-10-30T20:44:32.652Z,17.53
2022-10-30T20:47:02.601Z,17.80
2022-10-30T20:49:32.292Z,17.85
2022-10-30T20:52:02.093Z,17.67
2022-10-30T20:54:32.120Z,17.51
2022-10-30T20:57:02.895Z,17.63
2022-10-30T20:59:33.186Z,17.75
2022-10-30T21:02:03.724Z,17.84
2022-10-30T21:04:33.083Z,17.69
2022-10-30T21:07:02.984Z,17.75
2022-10-30T21:09:32.587Z,17.66
2022-10-30T21:12:02.574Z,17.68
2022-10-30T21:14:34.183Z,17.72
2022-10-30T21:17:04.190Z,17.63
2022-10-30T21:19:33.958Z,17.78
2022-10-30T21:22:03.596Z,17.74
2022-10-30T21:24:33.563Z,17.60
2022-10-30T21:27:03.408Z,17.63
2022-10-30T21:29:35.486Z,17.74
2022-10-30T21:32:05.707Z,17.76
2022-10-30T21:34:35.529Z,17.85
2022-10-30T21:37:05.084Z,17.73
2022-10-30T21:39:33.702Z,17.59
2022-10-30T21:42:02.369Z,16.51
2022-10-30T21:44:31.033Z,17.49
2022-10-30T21:47:00.843Z,17.61
2022-10-30T21:49:29.157Z,17.62
2022-10-30T21:51:57.580Z,17.62
2022-10-30T21:54:26.150Z,17.56
2022-10-30T21:56:54.522Z,17.57
2022-10-30T21:59:24.363Z,17.68
2022-10-30T22:01:52.852Z,17.66
2022-10-30T22:04:22.691Z,17.52
2022-10-30T22:06:51.238Z,17.61
2022-10-30T22:09:20.384Z,17.57
2022-10-30T22:11:48.701Z,17.59
2022-10-30T22:14:17.082Z,17.50
2022-10-30T22:16:45.470Z,17.60
2022-10-30T22:19:13.804Z,17.45
2022-10-30T22:21:43.946Z,17.45
2022-10-30T22:24:13.863Z,17.59
2022-10-30T22:26:42.314Z,17.26
2022-10-30T22:29:10.843Z,17.53
2022-10-30T22:31:39.234Z,17.39
2022-10-30T22:34:07.566Z,17.34
2022-10-30T22:36:36.100Z,17.43
2022-10-30T22:39:09.988Z,17.66
2022-10-30T22:41:38.586Z,17.62
2022-10-30T22:44:09.049Z,17.30
2022-10-30T22:46:38.097Z,17.56
2022-10-30T22:49:07.637Z,17.34
2022-10-30T22:51:38.118Z,17.45
2022-10-30T22:54:09.617Z,17.44
2022-10-30T22:56:38.661Z,17.38
2022-10-30T22:59:08.992Z,17.33
2022-10-30T23:01:38.324Z,17.38
2022-10-30T23:04:07.898Z,17.37
2022-10-30T23:06:36.921Z,17.34
2022-10-30T23:09:09.313Z,16.98
2022-10-30T23:11:37.982Z,17.18
2022-10-30T23:14:06.399Z,16.86
2022-10-30T23:16:34.778Z,17.12
2022-10-30T23:19:03.388Z,17.14
2022-10-30T23:21:33.234Z,17.10
2022-10-30T23:24:03.853Z,16.91
2022-10-30T23:26:35.556Z,17.03
2022-10-30T23:29:04.521Z,16.94
2022-10-30T23:31:35.254Z,16.80
2022-10-30T23:34:07.345Z,16.80
2022-10-30T23:36:35.921Z,16.73
2022-10-30T23:39:07.077Z,16.56
2022-10-30T23:41:37.059Z,16.72
2022-10-30T23:44:07.298Z,16.34
2022-10-30T23:46:36.506Z,16.56
2022-10-30T23:49:05.469Z,16.51
2022-10-30T23:51:34.085Z,16.44
2022-10-30T23:54:02.784Z,16.41
2022-10-30T23:56:31.361Z,16.14
2022-10-30T23:59:02.059Z,16.28
